createdAt,value
2018-05-15T00:01:40.986Z,92.70
2018-05-15T00:04:11.894Z,92.80
2018-05-15T00:06:44.745Z,91.90
2018-05-15T00:09:14.269Z,91.90
2018-05-15T00:11:42.518Z,91.90
2018-05-15T00:14:14.000Z,91.60
2018-05-15T00:16:43.069Z,91.40
2018-05-15T00:19:13.233Z,91.30
2018-05-15T00:21:44.216Z,91.40
2018-05-15T00:24:17.765Z,91.40
2018-05-15T00:26:50.640Z,91.90
2018-05-15T00:29:20.165Z,91.90
2018-05-15T00:32:02.772Z,91.90
2018-05-15T00:34:34.655Z,92.40
2018-05-15T00:37:07.878Z,92.40
2018-05-15T00:39:49.007Z,92.40
2018-05-15T00:42:30.815Z,92.20
2018-05-15T00:45:02.244Z,92.20
2018-05-15T00:47:31.921Z,92.20
2018-05-15T00:50:06.181Z,92.20
2018-05-15T00:52:44.956Z,91.90
2018-05-15T00:55:32.420Z,92.50
2018-05-15T00:58:05.208Z,92.60
2018-05-15T01:00:39.174Z,93.00
2018-05-15T01:03:13.985Z,92.90
2018-05-15T01:05:43.554Z,93.00
2018-05-15T01:08:22.409Z,92.90
2018-05-15T01:10:50.731Z,92.90
2018-05-15T01:13:21.333Z,92.80
2018-05-15T01:15:52.449Z,92.00
2018-05-15T01:18:20.951Z,91.50
2018-05-15T01:20:49.222Z,91.00
2018-05-15T01:23:17.527Z,91.40
2018-05-15T01:25:46.805Z,91.20
2018-05-15T01:28:19.641Z,91.10
2018-05-15T01:31:06.991Z,91.40
2018-05-15T01:33:38.503Z,91.40
2018-05-15T01:36:10.149Z,91.50
2018-05-15T01:38:51.257Z,90.60
2018-05-15T01:41:23.460Z,91.00
2018-05-15T01:43:51.779Z,91.00
2018-05-15T01:46:20.047Z,91.60
2018-05-15T01:48:48.298Z,91.40
2018-05-15T01:51:19.971Z,91.50
2018-05-15T01:53:49.284Z,91.60
2018-05-15T01:56:21.520Z,91.50
2018-05-15T01:58:55.253Z,91.30
2018-05-15T02:01:26.059Z,91.20
2018-05-15T02:03:58.559Z,91.20
2018-05-15T02:06:26.836Z,91.40
2018-05-15T02:08:59.928Z,91.40
2018-05-15T02:11:30.283Z,91.60
2018-05-15T02:14:01.296Z,91.90
2018-05-15T02:16:33.282Z,91.90
2018-05-15T02:19:04.349Z,91.70
2018-05-15T02:21:33.565Z,91.60
2018-05-15T02:24:03.819Z,91.10
2018-05-15T02:26:35.501Z,91.20
2018-05-15T02:29:06.518Z,90.90
2018-05-15T02:31:41.523Z,90.90
2018-05-15T02:34:09.803Z,90.70
2018-05-15T02:36:44.054Z,90.50
2018-05-15T02:39:16.746Z,90.10
2018-05-15T02:41:46.741Z,90.00
2018-05-15T02:44:14.991Z,90.00
2018-05-15T02:46:47.683Z,90.40
2018-05-15T02:49:15.980Z,90.60
2018-05-15T02:51:44.220Z,90.70
2018-05-15T02:54:18.841Z,90.70
2018-05-15T02:56:48.854Z,90.70
2018-05-15T02:59:24.368Z,90.60
2018-05-15T03:01:55.343Z,90.40
2018-05-15T03:04:33.667Z,90.40
2018-05-15T03:07:08.659Z,90.20
2018-05-15T03:09:39.670Z,90.20
2018-05-15T03:12:07.931Z,90.20
2018-05-15T03:14:46.733Z,90.60
2018-05-15T03:17:15.012Z,90.30
2018-05-15T03:19:43.401Z,90.30
2018-05-15T03:22:13.649Z,90.70
2018-05-15T03:24:45.042Z,90.20
2018-05-15T03:27:32.039Z,90.70
2018-05-15T03:30:26.141Z,90.70
2018-05-15T03:33:06.620Z,90.40
2018-05-15T03:35:36.854Z,90.70
2018-05-15T03:38:06.155Z,90.70
2018-05-15T03:40:52.183Z,90.70
2018-05-15T03:43:29.196Z,90.60
2018-05-15T03:46:09.119Z,90.60
2018-05-15T03:48:44.682Z,90.80
2018-05-15T03:51:21.538Z,91.00
2018-05-15T03:53:58.035Z,90.80
2018-05-15T03:56:31.075Z,90.80
2018-05-15T03:59:00.963Z,91.20
2018-05-15T04:01:50.510Z,91.20
2018-05-15T04:04:38.607Z,91.30
2018-05-15T04:07:27.855Z,90.90
2018-05-15T04:09:58.079Z,90.90
2018-05-15T04:12:28.328Z,90.80
2018-05-15T04:14:56.606Z,90.80
2018-05-15T04:17:24.865Z,90.90
2018-05-15T04:19:54.878Z,90.90
2018-05-15T04:22:23.728Z,91.10
2018-05-15T04:24:54.801Z,91.20
2018-05-15T04:27:23.106Z,91.20
2018-05-15T04:29:53.097Z,91.20
2018-05-15T04:32:27.628Z,91.20
2018-05-15T04:35:09.170Z,91.10
2018-05-15T04:37:49.399Z,90.90
2018-05-15T04:40:28.254Z,91.00
2018-05-15T04:43:03.222Z,91.00
2018-05-15T04:45:31.481Z,91.30
2018-05-15T04:48:23.231Z,91.30
2018-05-15T04:51:06.163Z,91.20
2018-05-15T04:53:48.814Z,91.20
2018-05-15T04:56:32.468Z,91.20
2018-05-15T04:59:06.524Z,91.20
2018-05-15T05:01:45.802Z,91.20
2018-05-15T05:04:14.227Z,91.30
2018-05-15T05:06:43.556Z,91.60
2018-05-15T05:09:26.615Z,91.50
2018-05-15T05:12:05.553Z,91.50
2018-05-15T05:14:51.840Z,91.70
2018-05-15T05:17:21.079Z,91.90
2018-05-15T05:19:55.486Z,91.70
2018-05-15T05:22:24.807Z,91.80
2018-05-15T05:24:53.079Z,91.90
2018-05-15T05:27:22.408Z,91.90
2018-05-15T05:29:56.464Z,91.50
2018-05-15T05:32:25.901Z,91.50
2018-05-15T05:34:57.847Z,91.60
2018-05-15T05:37:26.126Z,91.20
2018-05-15T05:39:54.540Z,91.10
2018-05-15T05:42:23.594Z,91.00
2018-05-15T05:44:51.876Z,91.00
2018-05-15T05:47:27.126Z,90.90
2018-05-15T05:49:57.513Z,91.10
2018-05-15T05:52:38.506Z,91.00
2018-05-15T05:55:17.727Z,91.30
2018-05-15T05:57:52.687Z,90.90
2018-05-15T06:00:22.033Z,91.30
2018-05-15T06:03:07.836Z,91.00
2018-05-15T06:05:41.834Z,91.40
2018-05-15T06:08:13.763Z,91.10
2018-05-15T06:10:42.010Z,91.00
2018-05-15T06:13:11.309Z,91.10
2018-05-15T06:15:51.875Z,91.00
2018-05-15T06:18:37.262Z,91.00
2018-05-15T06:21:09.848Z,91.10
2018-05-15T06:23:39.138Z,90.70
2018-05-15T06:26:14.162Z,90.60
2018-05-15T06:28:43.459Z,90.80
2018-05-15T06:31:14.917Z,90.70
2018-05-15T06:33:46.806Z,90.70
2018-05-15T06:36:16.091Z,90.60
2018-05-15T06:38:47.853Z,90.90
2018-05-15T06:41:22.208Z,90.80
2018-05-15T06:43:50.474Z,91.00
2018-05-15T06:46:23.943Z,91.10
2018-05-15T06:48:52.226Z,91.00
2018-05-15T06:51:24.354Z,90.70
2018-05-15T06:54:00.832Z,90.50
2018-05-15T06:56:29.153Z,90.50
2018-05-15T06:59:02.022Z,90.50
2018-05-15T07:01:36.317Z,90.60
2018-05-15T07:04:14.853Z,90.40
2018-05-15T07:06:46.994Z,90.10
2018-05-15T07:09:18.928Z,90.10
2018-05-15T07:11:47.165Z,90.20
2018-05-15T07:14:18.191Z,90.50
2018-05-15T07:16:46.479Z,90.50
2018-05-15T07:19:18.899Z,90.80
2018-05-15T07:21:48.031Z,91.00
2018-05-15T07:24:17.361Z,91.20
2018-05-15T07:26:56.758Z,91.70
2018-05-15T07:29:27.050Z,91.80
2018-05-15T07:31:59.179Z,91.70
2018-05-15T07:34:36.522Z,91.80
2018-05-15T07:37:08.736Z,91.80
2018-05-15T07:39:49.140Z,91.50
2018-05-15T07:42:18.395Z,91.60
2018-05-15T07:45:05.862Z,91.50
2018-05-15T07:47:37.690Z,91.50
2018-05-15T07:50:05.923Z,91.50
2018-05-15T07:52:38.254Z,91.70
2018-05-15T07:55:11.019Z,91.20
2018-05-15T07:57:39.424Z,91.20
2018-05-15T08:00:10.450Z,90.40
2018-05-15T08:02:53.589Z,90.50
2018-05-15T08:05:23.967Z,90.50
2018-05-15T08:07:57.604Z,88.90
2018-05-15T08:10:38.616Z,88.60
2018-05-15T08:13:07.986Z,88.60
2018-05-15T08:15:48.258Z,86.70
2018-05-15T08:18:17.803Z,86.70
2018-05-15T08:20:57.919Z,87.50
2018-05-15T08:23:27.179Z,88.30
2018-05-15T08:26:05.436Z,88.20
2018-05-15T08:28:42.240Z,88.30
2018-05-15T08:31:18.892Z,89.10
2018-05-15T08:33:54.844Z,88.60
2018-05-15T08:36:25.106Z,86.80
2018-05-15T08:39:07.544Z,85.70
2018-05-15T08:41:36.596Z,84.00
2018-05-15T08:44:05.915Z,83.90
2018-05-15T08:46:37.986Z,81.40
2018-05-15T08:49:16.251Z,80.60
2018-05-15T08:51:44.573Z,82.20
2018-05-15T08:54:14.026Z,83.60
2018-05-15T08:56:57.160Z,84.30
2018-05-15T08:59:27.411Z,85.40
2018-05-15T09:02:07.214Z,85.30
2018-05-15T09:04:42.586Z,85.70
2018-05-15T09:07:21.724Z,85.40
2018-05-15T09:09:49.993Z,84.80
2018-05-15T09:12:31.023Z,84.70
2018-05-15T09:15:03.252Z,81.70
2018-05-15T09:17:38.584Z,81.10
2018-05-15T09:20:14.303Z,81.10
2018-05-15T09:22:49.987Z,81.60
2018-05-15T09:25:22.300Z,81.70
2018-05-15T09:27:54.751Z,81.00
2018-05-15T09:30:26.493Z,81.00
2018-05-15T09:32:59.306Z,80.20
2018-05-15T09:35:33.061Z,80.30
2018-05-15T09:38:11.606Z,80.20
2018-05-15T09:40:54.995Z,84.60
2018-05-15T09:46:52.929Z,91.70
2018-05-15T09:49:36.093Z,92.00
2018-05-15T09:52:12.109Z,91.80
2018-05-15T09:54:44.341Z,91.80
2018-05-15T09:57:36.232Z,91.70
2018-05-15T10:00:10.105Z,91.70
2018-05-15T10:02:44.413Z,91.70
2018-05-15T10:05:18.458Z,91.90
2018-05-15T10:07:46.829Z,91.40
2018-05-15T10:10:21.847Z,90.30
2018-05-15T10:13:03.192Z,86.10
2018-05-15T10:15:32.479Z,81.60
2018-05-15T10:18:00.814Z,79.00
2018-05-15T10:20:51.142Z,79.30
2018-05-15T10:23:23.675Z,76.90
2018-05-15T10:25:53.962Z,76.90
2018-05-15T10:28:27.198Z,77.20
2018-05-15T10:31:08.519Z,78.20
2018-05-15T10:33:49.721Z,77.90
2018-05-15T10:36:25.303Z,77.90
2018-05-15T10:39:01.125Z,76.90
2018-05-15T10:41:37.365Z,72.20
2018-05-15T10:44:13.963Z,63.30
2018-05-15T10:46:42.296Z,63.10
2018-05-15T10:49:12.589Z,58.00
2018-05-15T10:51:42.873Z,53.80
2018-05-15T10:54:19.073Z,57.40
2018-05-15T10:56:49.295Z,57.40
2018-05-15T10:59:18.744Z,59.00
2018-05-15T11:02:06.636Z,52.00
2018-05-15T11:04:39.723Z,52.00
2018-05-15T11:07:12.557Z,51.10
2018-05-15T11:09:41.605Z,44.20
2018-05-15T11:12:11.599Z,44.10
2018-05-15T11:14:44.092Z,43.00
2018-05-15T11:17:12.487Z,44.40
2018-05-15T11:19:59.004Z,47.50
2018-05-15T11:22:46.455Z,48.70
2018-05-15T11:25:33.553Z,55.00
2018-05-15T11:28:02.844Z,55.10
2018-05-15T11:30:33.261Z,53.10
2018-05-15T11:33:21.660Z,57.00
2018-05-15T11:35:55.692Z,57.00
2018-05-15T11:38:25.780Z,58.20
2018-05-15T11:41:19.174Z,58.10
2018-05-15T11:44:05.585Z,52.00
2018-05-15T11:46:47.364Z,48.70
2018-05-15T11:49:26.784Z,49.40
2018-05-15T11:52:03.478Z,44.70
2018-05-15T11:54:48.555Z,41.80
2018-05-15T11:57:20.966Z,41.70
2018-05-15T11:59:59.682Z,37.80
2018-05-15T12:02:41.457Z,36.00
2018-05-15T12:05:13.680Z,35.90
2018-05-15T12:07:41.926Z,43.40
2018-05-15T12:10:15.206Z,44.80
2018-05-15T12:12:43.653Z,45.00
2018-05-15T12:15:14.079Z,46.00
2018-05-15T12:17:42.447Z,44.80
2018-05-15T12:20:14.151Z,42.50
2018-05-15T12:22:43.470Z,39.90
2018-05-15T12:25:12.753Z,37.90
2018-05-15T12:27:43.322Z,36.10
2018-05-15T12:30:11.797Z,37.70
2018-05-15T12:32:43.316Z,39.30
2018-05-15T12:35:16.467Z,44.30
2018-05-15T12:37:44.770Z,46.70
2018-05-15T12:40:16.852Z,49.50
2018-05-15T12:42:52.116Z,49.40
2018-05-15T12:45:27.279Z,51.90
2018-05-15T12:47:56.802Z,51.80
2018-05-15T12:50:35.559Z,54.70
2018-05-15T12:53:09.484Z,58.10
2018-05-15T12:55:40.915Z,61.50
2018-05-15T12:58:09.254Z,61.60
2018-05-15T13:00:38.523Z,66.10
2018-05-15T13:03:09.644Z,73.30
2018-05-15T13:05:38.562Z,73.30
2018-05-15T13:08:13.437Z,77.60
2018-05-15T13:10:47.955Z,77.60
2018-05-15T13:13:17.766Z,77.70
2018-05-15T13:15:54.696Z,78.90
2018-05-15T13:18:29.227Z,81.10
2018-05-15T13:21:04.662Z,80.20
2018-05-15T13:23:43.529Z,81.20
2018-05-15T13:26:12.099Z,82.20
2018-05-15T13:28:45.247Z,81.30
2018-05-15T13:31:18.542Z,82.10
2018-05-15T13:34:04.757Z,81.60
2018-05-15T13:36:38.514Z,79.80
2018-05-15T13:39:11.551Z,79.80
2018-05-15T13:41:42.750Z,81.00
2018-05-15T13:44:15.788Z,81.50
2018-05-15T13:46:48.415Z,80.10
2018-05-15T13:49:20.370Z,79.90
2018-05-15T13:51:50.781Z,80.40
2018-05-15T13:54:22.186Z,80.20
2018-05-15T13:56:51.947Z,81.10
2018-05-15T13:59:39.248Z,81.00
2018-05-15T14:02:17.503Z,81.50
2018-05-15T14:04:56.649Z,81.30
2018-05-15T14:07:24.905Z,80.90
2018-05-15T14:09:57.736Z,81.70
2018-05-15T14:12:27.195Z,83.20
2018-05-15T14:14:58.179Z,84.70
2018-05-15T14:17:29.274Z,85.50
2018-05-15T14:20:06.160Z,85.40
2018-05-15T14:22:45.972Z,84.30
2018-05-15T14:25:16.552Z,85.30
2018-05-15T14:27:55.813Z,84.70
2018-05-15T14:30:25.030Z,80.20
2018-05-15T14:32:58.104Z,80.10
2018-05-15T14:35:44.359Z,79.00
2018-05-15T14:38:24.675Z,78.90
2018-05-15T14:40:53.934Z,78.40
2018-05-15T14:43:32.103Z,79.20
2018-05-15T14:46:00.424Z,79.70
2018-05-15T14:48:28.700Z,78.60
2018-05-15T14:54:13.276Z,75.30
2018-05-15T14:56:41.666Z,74.90
2018-05-15T14:59:28.863Z,64.90
2018-05-15T15:02:01.443Z,64.70
2018-05-15T15:04:30.733Z,58.30
2018-05-15T15:07:03.974Z,59.60
2018-05-15T15:09:38.099Z,59.80
2018-05-15T15:12:09.607Z,59.70
2018-05-15T15:14:43.479Z,59.90
2018-05-15T15:17:22.196Z,60.50
2018-05-15T15:19:59.779Z,63.10
2018-05-15T15:22:28.155Z,63.00
2018-05-15T15:25:07.877Z,64.50
2018-05-15T15:27:57.351Z,65.60
2018-05-15T15:30:28.366Z,65.80
2018-05-15T15:32:56.759Z,65.70
2018-05-15T15:35:30.699Z,67.80
2018-05-15T15:38:09.348Z,67.90
2018-05-15T15:40:57.976Z,69.40
2018-05-15T15:43:27.365Z,70.20
2018-05-15T15:46:06.127Z,70.70
2018-05-15T15:48:40.158Z,71.50
2018-05-15T15:51:28.381Z,71.20
2018-05-15T15:54:26.715Z,69.60
2018-05-15T15:57:09.632Z,62.20
2018-05-15T15:59:43.206Z,62.90
2018-05-15T16:02:20.888Z,62.80
2018-05-15T16:05:03.768Z,63.70
2018-05-15T16:07:41.902Z,62.90
2018-05-15T16:10:17.550Z,60.20
2018-05-15T16:12:53.409Z,57.40
2018-05-15T16:15:30.588Z,55.80
2018-05-15T16:18:00.565Z,52.60
2018-05-15T16:20:29.628Z,52.80
2018-05-15T16:23:03.469Z,52.80
2018-05-15T16:25:34.189Z,51.30
2018-05-15T16:28:06.760Z,51.30
2018-05-15T16:30:35.001Z,52.10
2018-05-15T16:33:13.447Z,52.90
2018-05-15T16:35:49.051Z,53.70
2018-05-15T16:38:25.334Z,54.50
2018-05-15T16:41:03.208Z,57.20
2018-05-15T16:43:38.072Z,58.10
2018-05-15T16:46:12.712Z,59.80
2018-05-15T16:48:40.999Z,61.30
2018-05-15T16:51:09.280Z,62.80
2018-05-15T16:53:41.662Z,63.30
2018-05-15T16:56:28.828Z,67.00
2018-05-15T16:58:57.135Z,67.00
2018-05-15T17:01:28.498Z,74.70
2018-05-15T17:04:03.836Z,82.20
2018-05-15T17:06:38.703Z,82.20
2018-05-15T17:09:08.080Z,83.50
2018-05-15T17:11:39.107Z,86.50
2018-05-15T17:14:07.371Z,86.50
2018-05-15T17:16:41.710Z,88.50
2018-05-15T17:19:35.846Z,88.40
2018-05-15T17:22:16.092Z,89.20
2018-05-15T17:24:48.582Z,90.60
2018-05-15T17:27:16.901Z,91.10
2018-05-15T17:29:50.862Z,91.70
2018-05-15T17:32:21.284Z,91.70
2018-05-15T17:34:50.499Z,92.10
2018-05-15T17:37:18.766Z,92.60
2018-05-15T17:39:48.528Z,92.80
2018-05-15T17:42:22.050Z,93.70
2018-05-15T17:45:09.738Z,93.70
2018-05-15T17:47:45.235Z,94.00
2018-05-15T17:50:14.609Z,93.90
2018-05-15T17:52:45.617Z,94.00
2018-05-15T17:55:14.962Z,94.00
2018-05-15T17:57:49.893Z,93.70
2018-05-15T18:00:18.336Z,93.70
2018-05-15T18:02:48.069Z,93.50
2018-05-15T18:05:24.504Z,93.20
2018-05-15T18:07:58.421Z,93.20
2018-05-15T18:10:43.962Z,93.20
2018-05-15T18:13:28.408Z,92.90
2018-05-15T18:16:02.016Z,93.00
2018-05-15T18:18:32.311Z,93.20
2018-05-15T18:21:12.857Z,92.90
2018-05-15T18:23:41.105Z,92.90
2018-05-15T18:26:11.802Z,92.60
2018-05-15T18:28:46.746Z,92.90
2018-05-15T18:31:21.074Z,93.10
2018-05-15T18:33:52.900Z,93.40
2018-05-15T18:36:34.230Z,93.50
2018-05-15T18:39:04.706Z,93.50
2018-05-15T18:41:35.000Z,93.50
2018-05-15T18:44:04.303Z,93.50
2018-05-15T18:46:32.583Z,94.00
2018-05-15T18:49:00.862Z,94.10
2018-05-15T18:51:32.041Z,94.30
2018-05-15T18:54:03.770Z,94.30
2018-05-15T18:56:33.055Z,93.60
2018-05-15T18:59:04.949Z,93.20
2018-05-15T19:01:36.042Z,93.00
2018-05-15T19:04:06.976Z,93.00
2018-05-15T19:06:35.739Z,93.50
2018-05-15T19:09:04.143Z,94.00
2018-05-15T19:11:32.453Z,94.10
2018-05-15T19:14:01.578Z,93.80
2018-05-15T19:16:30.898Z,93.90
2018-05-15T19:19:00.193Z,93.80
2018-05-15T19:21:34.460Z,94.20
2018-05-15T19:24:08.530Z,94.20
2018-05-15T19:26:39.715Z,93.70
2018-05-15T19:29:38.037Z,93.80
2018-05-15T19:32:14.271Z,93.50
2018-05-15T19:34:48.194Z,93.60
2018-05-15T19:37:22.740Z,93.80
2018-05-15T19:39:57.099Z,93.80
2018-05-15T19:42:27.219Z,93.80
2018-05-15T19:44:56.495Z,94.00
2018-05-15T19:47:26.817Z,93.40
2018-05-15T19:50:06.998Z,93.40
2018-05-15T19:52:36.288Z,93.40
2018-05-15T19:55:12.063Z,93.80
2018-05-15T19:57:41.171Z,93.60
2018-05-15T20:00:10.502Z,93.60
2018-05-15T20:02:40.098Z,93.70
2018-05-15T20:05:12.094Z,93.80
2018-05-15T20:07:41.513Z,93.80
2018-05-15T20:10:19.594Z,93.60
2018-05-15T20:12:55.924Z,93.70
2018-05-15T20:15:24.223Z,93.80
2018-05-15T20:17:54.095Z,94.20
2018-05-15T20:20:30.334Z,94.20
2018-05-15T20:23:03.735Z,94.20
2018-05-15T20:25:36.563Z,94.20
2018-05-15T20:28:09.504Z,94.20
2018-05-15T20:30:37.903Z,94.10
2018-05-15T20:33:06.184Z,94.60
2018-05-15T20:35:35.475Z,94.60
2018-05-15T20:41:06.425Z,94.20
2018-05-15T20:43:35.675Z,94.10
2018-05-15T20:46:08.616Z,93.80
2018-05-15T20:48:37.137Z,93.30
2018-05-15T20:51:07.366Z,93.50
2018-05-15T20:53:36.723Z,93.50
2018-05-15T20:56:05.961Z,93.70
2018-05-15T20:58:37.145Z,94.30
2018-05-15T21:01:05.956Z,94.30
2018-05-15T21:03:38.883Z,93.90
2018-05-15T21:06:07.225Z,93.60
2018-05-15T21:08:50.534Z,93.50
2018-05-15T21:11:24.241Z,93.40
2018-05-15T21:14:05.692Z,93.60
2018-05-15T21:16:37.227Z,93.90
2018-05-15T21:19:06.978Z,94.20
2018-05-15T21:21:37.268Z,94.10
2018-05-15T21:24:08.280Z,94.60
2018-05-15T21:26:42.010Z,94.60
2018-05-15T21:29:18.133Z,94.90
2018-05-15T21:32:01.073Z,94.60
2018-05-15T21:34:30.431Z,94.60
2018-05-15T21:37:04.204Z,95.00
2018-05-15T21:39:40.590Z,94.90
2018-05-15T21:42:17.843Z,95.00
2018-05-15T21:44:48.915Z,95.30
2018-05-15T21:47:18.678Z,95.30
2018-05-15T21:49:48.053Z,95.50
2018-05-15T21:52:24.476Z,95.50
2018-05-15T21:54:58.639Z,95.30
2018-05-15T21:57:28.950Z,95.30
2018-05-15T21:59:59.021Z,95.20
2018-05-15T22:02:28.077Z,94.80
2018-05-15T22:04:56.370Z,94.80
2018-05-15T22:07:24.867Z,94.90
2018-05-15T22:09:59.655Z,94.90
2018-05-15T22:12:51.694Z,94.80
2018-05-15T22:15:44.154Z,94.90
2018-05-15T22:18:36.855Z,94.70
2018-05-15T22:21:25.074Z,94.80
2018-05-15T22:23:55.304Z,95.00
2018-05-15T22:26:28.437Z,94.80
2018-05-15T22:28:57.343Z,94.80
2018-05-15T22:31:38.502Z,94.90
2018-05-15T22:34:17.879Z,95.00
2018-05-15T22:37:09.005Z,95.00
2018-05-15T22:39:45.364Z,94.80
2018-05-15T22:42:16.480Z,94.80
2018-05-15T22:44:59.588Z,94.80
2018-05-15T22:47:32.035Z,94.90
2018-05-15T22:50:15.880Z,94.80
2018-05-15T22:52:57.917Z,94.80
2018-05-15T22:55:30.202Z,94.80
2018-05-15T22:58:00.566Z,94.80
2018-05-15T23:00:35.881Z,94.80
2018-05-15T23:03:19.478Z,94.80
2018-05-15T23:05:54.959Z,94.90
2018-05-15T23:08:24.829Z,94.60
2018-05-15T23:10:53.129Z,94.70
2018-05-15T23:13:40.284Z,94.70
2018-05-15T23:16:12.731Z,94.80
2018-05-15T23:18:44.686Z,94.80
2018-05-15T23:21:21.042Z,94.80
2018-05-15T23:24:05.958Z,94.80
2018-05-15T23:26:36.992Z,94.80
2018-05-15T23:29:09.362Z,94.80
2018-05-15T23:31:39.340Z,94.80
2018-05-15T23:34:11.866Z,94.80
2018-05-15T23:36:41.112Z,95.10
2018-05-15T23:39:33.667Z,95.10
2018-05-15T23:42:14.219Z,95.30
2018-05-15T23:44:47.748Z,95.30
2018-05-15T23:47:26.007Z,95.30
2018-05-15T23:49:54.359Z,95.40
2018-05-15T23:52:31.261Z,95.80
2018-05-15T23:55:03.484Z,95.80
2018-05-15T23:57:39.920Z,95.90
